createdAt,value
2023-05-05T00:00:42.141Z,30.24
2023-05-05T00:01:42.180Z,29.77
2023-05-05T00:02:42.328Z,30.26
2023-05-05T00:03:42.516Z,29.40
2023-05-05T00:04:42.369Z,29.95
2023-05-05T00:05:42.420Z,29.61
2023-05-05T00:06:42.492Z,29.73
2023-05-05T00:07:42.558Z,29.45
2023-05-05T00:08:42.620Z,29.12
2023-05-05T00:09:42.658Z,29.10
2023-05-05T00:10:42.726Z,29.26
2023-05-05T00:11:42.772Z,29.49
2023-05-05T00:12:42.849Z,28.97
2023-05-05T00:13:42.856Z,28.58
2023-05-05T00:14:42.959Z,28.76
2023-05-05T00:15:42.995Z,29.00
2023-05-05T00:16:43.098Z,28.87
2023-05-05T00:17:43.142Z,28.90
2023-05-05T00:18:43.188Z,28.77
2023-05-05T00:19:43.207Z,28.69
2023-05-05T00:20:43.267Z,28.71
2023-05-05T00:21:43.326Z,28.82
2023-05-05T00:22:43.350Z,28.53
2023-05-05T00:23:43.427Z,28.67
2023-05-05T00:24:43.486Z,28.72
2023-05-05T00:25:43.559Z,28.37
2023-05-05T00:26:43.673Z,28.32
2023-05-05T00:27:43.684Z,28.31
2023-05-05T00:28:43.736Z,28.66
2023-05-05T00:29:43.830Z,27.96
2023-05-05T00:30:43.901Z,27.86
2023-05-05T00:31:43.962Z,27.93
2023-05-05T00:32:44.101Z,28.01
2023-05-05T00:33:44.016Z,27.82
2023-05-05T00:34:44.121Z,27.31
2023-05-05T00:35:44.172Z,27.86
2023-05-05T00:36:44.246Z,28.05
2023-05-05T00:37:44.277Z,27.77
2023-05-05T00:38:44.397Z,27.40
2023-05-05T00:39:44.405Z,27.52
2023-05-05T00:40:44.468Z,27.69
2023-05-05T00:41:44.527Z,27.57
2023-05-05T00:42:44.587Z,27.80
2023-05-05T00:43:44.620Z,27.52
2023-05-05T00:44:44.858Z,27.14
2023-05-05T00:45:44.759Z,26.98
2023-05-05T00:46:44.833Z,26.61
2023-05-05T00:47:44.944Z,27.08
2023-05-05T00:48:44.941Z,26.93
2023-05-05T00:49:44.974Z,26.81
2023-05-05T00:50:45.061Z,27.35
2023-05-05T00:51:45.265Z,27.06
2023-05-05T00:52:45.179Z,26.82
2023-05-05T00:53:45.235Z,26.97
2023-05-05T00:54:45.326Z,27.01
2023-05-05T00:55:45.792Z,26.68
2023-05-05T00:56:45.430Z,26.38
2023-05-05T00:57:45.524Z,26.17
2023-05-05T00:58:45.581Z,26.23
2023-05-05T00:59:45.635Z,26.22
2023-05-05T01:00:45.703Z,26.38
2023-05-05T01:01:45.782Z,26.47
2023-05-05T01:02:45.894Z,26.29
2023-05-05T01:03:45.919Z,26.46
2023-05-05T01:04:45.907Z,25.98
2023-05-05T01:05:46.005Z,25.93
2023-05-05T01:06:46.018Z,26.24
2023-05-05T01:07:46.094Z,25.56
2023-05-05T01:08:46.202Z,25.72
2023-05-05T01:09:46.190Z,25.56
2023-05-05T01:10:46.322Z,25.92
2023-05-05T01:11:46.373Z,25.98
2023-05-05T01:12:46.449Z,25.91
2023-05-05T01:13:46.477Z,25.80
2023-05-05T01:14:46.491Z,25.38
2023-05-05T01:15:46.518Z,25.72
2023-05-05T01:16:46.562Z,25.61
2023-05-05T01:17:46.612Z,25.40
2023-05-05T01:18:46.617Z,25.41
2023-05-05T01:19:46.616Z,25.28
2023-05-05T01:20:46.772Z,25.71
2023-05-05T01:21:46.683Z,25.13
2023-05-05T01:22:46.783Z,25.70
2023-05-05T01:23:46.805Z,24.97
2023-05-05T01:24:46.834Z,25.06
2023-05-05T01:25:46.859Z,24.68
2023-05-05T01:26:46.953Z,24.72
2023-05-05T01:27:46.957Z,25.05
2023-05-05T01:28:47.011Z,24.35
2023-05-05T01:29:47.096Z,24.96
2023-05-05T01:30:47.218Z,24.84
2023-05-05T01:31:47.220Z,24.95
2023-05-05T01:32:47.366Z,24.46
2023-05-05T01:33:47.243Z,24.77
2023-05-05T01:34:47.399Z,24.40
2023-05-05T01:35:47.365Z,24.62
2023-05-05T01:36:47.369Z,24.16
2023-05-05T01:37:47.337Z,24.20
2023-05-05T01:38:47.336Z,24.19
2023-05-05T01:39:47.455Z,24.60
2023-05-05T01:40:47.385Z,24.47
2023-05-05T01:41:47.419Z,23.88
2023-05-05T01:42:47.448Z,24.31
2023-05-05T01:43:47.470Z,23.94
2023-05-05T01:44:47.501Z,24.32
2023-05-05T01:45:47.518Z,23.87
2023-05-05T01:46:47.502Z,23.99
2023-05-05T01:47:47.552Z,24.10
2023-05-05T01:48:47.548Z,23.45
2023-05-05T01:49:47.513Z,23.98
2023-05-05T01:50:47.504Z,23.85
2023-05-05T01:51:47.521Z,23.50
2023-05-05T01:52:47.492Z,23.83
2023-05-05T01:53:47.552Z,23.50
2023-05-05T01:54:47.573Z,23.55
2023-05-05T01:55:47.589Z,23.34
2023-05-05T01:56:47.594Z,23.78
2023-05-05T01:57:47.612Z,23.27
2023-05-05T01:58:47.658Z,23.41
2023-05-05T01:59:47.726Z,23.43
2023-05-05T02:00:47.726Z,23.67
2023-05-05T02:01:47.724Z,23.42
2023-05-05T02:02:48.369Z,23.39
2023-05-05T02:03:47.750Z,23.45
2023-05-05T02:04:47.760Z,22.84
2023-05-05T02:05:47.742Z,23.20
2023-05-05T02:06:47.733Z,23.00
2023-05-05T02:07:47.740Z,22.63
2023-05-05T02:08:47.725Z,23.09
2023-05-05T02:09:47.742Z,22.96
2023-05-05T02:10:47.767Z,22.90
2023-05-05T02:11:47.763Z,22.81
2023-05-05T02:12:47.769Z,23.13
2023-05-05T02:13:47.797Z,22.81
2023-05-05T02:14:47.769Z,22.66
2023-05-05T02:15:47.755Z,22.72
2023-05-05T02:16:47.836Z,22.32
2023-05-05T02:17:47.826Z,22.66
2023-05-05T02:18:47.728Z,22.46
2023-05-05T02:19:47.788Z,22.48
2023-05-05T02:20:47.821Z,22.35
2023-05-05T02:21:47.833Z,22.36
2023-05-05T02:22:47.779Z,22.03
2023-05-05T02:23:47.781Z,22.78
2023-05-05T02:24:47.752Z,22.24
2023-05-05T02:25:47.766Z,22.02
2023-05-05T02:26:47.750Z,22.08
2023-05-05T02:27:47.769Z,21.82
2023-05-05T02:28:47.768Z,22.23
2023-05-05T02:29:47.780Z,22.24
2023-05-05T02:30:47.788Z,22.14
2023-05-05T02:31:47.797Z,21.94
2023-05-05T02:32:47.822Z,21.71
2023-05-05T02:33:47.727Z,22.04
2023-05-05T02:34:47.717Z,21.96
2023-05-05T02:35:47.715Z,21.62
2023-05-05T02:36:47.804Z,21.58
2023-05-05T02:37:47.731Z,21.57
2023-05-05T02:38:47.691Z,21.72
2023-05-05T02:39:47.692Z,21.67
2023-05-05T02:40:47.707Z,21.78
2023-05-05T02:41:47.695Z,21.42
2023-05-05T02:42:47.743Z,21.42
2023-05-05T02:43:47.677Z,21.10
2023-05-05T02:44:47.712Z,21.10
2023-05-05T02:45:47.657Z,21.46
2023-05-05T02:46:47.701Z,21.08
2023-05-05T02:47:47.695Z,21.03
2023-05-05T02:48:47.758Z,21.07
2023-05-05T02:49:47.654Z,21.60
2023-05-05T02:50:47.662Z,20.94
2023-05-05T02:51:47.654Z,20.77
2023-05-05T02:52:47.616Z,20.79
2023-05-05T02:53:47.681Z,20.76
2023-05-05T02:54:47.640Z,20.78
2023-05-05T02:55:47.644Z,20.85
2023-05-05T02:56:47.652Z,20.69
2023-05-05T02:57:47.658Z,20.86
2023-05-05T02:58:47.674Z,20.60
2023-05-05T02:59:47.636Z,20.71
2023-05-05T03:00:47.605Z,20.78
2023-05-05T03:01:47.702Z,20.55
2023-05-05T03:02:47.667Z,20.51
2023-05-05T03:03:47.716Z,20.55
2023-05-05T03:04:47.629Z,20.63
2023-05-05T03:05:47.610Z,20.50
2023-05-05T03:06:47.613Z,20.66
2023-05-05T03:07:47.572Z,20.23
2023-05-05T03:08:47.627Z,20.50
2023-05-05T03:09:47.616Z,20.59
2023-05-05T03:10:47.601Z,20.55
2023-05-05T03:11:47.574Z,19.75
2023-05-05T03:12:47.609Z,20.58
2023-05-05T03:13:47.694Z,20.05
2023-05-05T03:14:47.592Z,19.94
2023-05-05T03:15:47.576Z,19.72
2023-05-05T03:16:47.623Z,20.12
2023-05-05T03:17:47.624Z,19.82
2023-05-05T03:18:47.596Z,19.77
2023-05-05T03:19:47.566Z,19.57
2023-05-05T03:20:47.592Z,20.11
2023-05-05T03:21:47.620Z,19.51
2023-05-05T03:22:47.611Z,20.19
2023-05-05T03:23:47.576Z,19.74
2023-05-05T03:24:47.646Z,19.27
2023-05-05T03:25:47.654Z,19.79
2023-05-05T03:26:47.586Z,19.24
2023-05-05T03:27:47.577Z,19.44
2023-05-05T03:28:47.608Z,19.27
2023-05-05T03:29:47.612Z,19.36
2023-05-05T03:30:47.602Z,19.17
2023-05-05T03:31:47.640Z,19.35
2023-05-05T03:32:47.632Z,19.32
2023-05-05T03:33:47.627Z,19.56
2023-05-05T03:34:47.645Z,19.16
2023-05-05T03:35:47.604Z,18.97
2023-05-05T03:36:47.666Z,18.96
2023-05-05T03:37:47.668Z,19.07
2023-05-05T03:38:47.660Z,19.15
2023-05-05T03:39:47.694Z,18.77
2023-05-05T03:40:47.670Z,18.55
2023-05-05T03:41:47.684Z,18.75
2023-05-05T03:42:47.714Z,18.98
2023-05-05T03:43:47.682Z,18.27
2023-05-05T03:44:47.725Z,18.69
2023-05-05T03:45:47.798Z,19.01
2023-05-05T03:46:47.722Z,18.56
2023-05-05T03:47:47.757Z,18.80
2023-05-05T03:48:47.731Z,18.43
2023-05-05T03:49:47.748Z,18.30
2023-05-05T03:50:47.847Z,18.36
2023-05-05T03:51:47.767Z,18.55
2023-05-05T03:52:47.755Z,18.10
2023-05-05T03:53:47.788Z,18.44
2023-05-05T03:54:47.853Z,18.16
2023-05-05T03:55:47.785Z,18.28
2023-05-05T03:56:47.764Z,18.00
2023-05-05T03:57:47.795Z,18.29
2023-05-05T03:58:47.803Z,18.33
2023-05-05T03:59:47.807Z,18.27
2023-05-05T04:00:47.809Z,18.00
2023-05-05T04:01:47.834Z,18.08
2023-05-05T04:02:47.882Z,18.13
2023-05-05T04:03:47.985Z,17.98
2023-05-05T04:04:47.820Z,17.86
2023-05-05T04:05:47.825Z,18.12
2023-05-05T04:06:47.836Z,18.00
2023-05-05T04:07:47.812Z,17.81
2023-05-05T04:08:47.850Z,17.82
2023-05-05T04:09:47.827Z,17.64
2023-05-05T04:10:47.861Z,17.74
2023-05-05T04:11:47.845Z,17.63
2023-05-05T04:12:47.897Z,17.41
2023-05-05T04:13:47.884Z,17.31
2023-05-05T04:14:47.875Z,17.60
2023-05-05T04:15:48.030Z,17.19
2023-05-05T04:16:47.893Z,17.19
2023-05-05T04:17:47.864Z,17.07
2023-05-05T04:18:47.916Z,17.22
2023-05-05T04:19:47.919Z,17.16
2023-05-05T04:20:47.932Z,17.11
2023-05-05T04:21:47.922Z,17.07
2023-05-05T04:22:47.930Z,17.03
2023-05-05T04:23:47.880Z,17.09
2023-05-05T04:24:47.955Z,16.53
2023-05-05T04:25:47.950Z,16.51
2023-05-05T04:26:47.944Z,16.49
2023-05-05T04:27:47.955Z,16.41
2023-05-05T04:28:47.981Z,16.28
2023-05-05T04:29:47.919Z,16.37
2023-05-05T04:30:47.928Z,16.20
2023-05-05T04:31:48.066Z,16.35
2023-05-05T04:32:47.966Z,15.96
2023-05-05T04:33:47.952Z,16.08
2023-05-05T04:34:47.955Z,15.84
2023-05-05T04:35:47.957Z,16.12
2023-05-05T04:36:47.961Z,16.22
2023-05-05T04:37:47.965Z,16.11
2023-05-05T04:38:48.006Z,15.86
2023-05-05T04:39:47.995Z,15.55
2023-05-05T04:40:47.957Z,16.00
2023-05-05T04:41:48.003Z,15.63
2023-05-05T04:42:47.981Z,15.72
2023-05-05T04:43:47.988Z,15.50
2023-05-05T04:44:47.977Z,15.52
2023-05-05T04:45:47.988Z,15.26
2023-05-05T04:46:48.024Z,15.59
2023-05-05T04:47:48.073Z,15.43
2023-05-05T04:48:48.002Z,15.08
2023-05-05T04:49:48.029Z,15.29
2023-05-05T04:50:48.040Z,15.14
2023-05-05T04:51:48.080Z,15.19
2023-05-05T04:52:48.040Z,15.02
2023-05-05T04:53:48.038Z,15.10
2023-05-05T04:54:48.050Z,14.94
2023-05-05T04:55:48.058Z,15.06
2023-05-05T04:56:48.107Z,14.73
2023-05-05T04:57:48.068Z,15.01
2023-05-05T04:58:48.082Z,14.89
2023-05-05T04:59:48.086Z,15.02
2023-05-05T05:00:48.034Z,14.70
2023-05-05T05:01:48.124Z,14.88
2023-05-05T05:02:48.192Z,15.25
2023-05-05T05:03:48.423Z,14.75
2023-05-05T05:04:48.129Z,14.74
2023-05-05T05:05:48.061Z,14.73
2023-05-05T05:06:48.077Z,14.83
2023-05-05T05:07:48.086Z,14.66
2023-05-05T05:08:48.084Z,14.54
2023-05-05T05:09:48.108Z,14.45
2023-05-05T05:10:48.102Z,14.45
2023-05-05T05:11:48.089Z,14.75
2023-05-05T05:12:48.184Z,14.46
2023-05-05T05:13:48.135Z,14.40
2023-05-05T05:14:48.094Z,14.34
2023-05-05T05:15:48.114Z,14.58
2023-05-05T05:16:48.213Z,14.36
2023-05-05T05:17:48.139Z,14.26
2023-05-05T05:18:48.158Z,14.04
2023-05-05T05:19:48.143Z,14.24
2023-05-05T05:20:48.143Z,14.11
2023-05-05T05:21:48.148Z,14.04
2023-05-05T05:22:48.254Z,14.44
2023-05-05T05:23:48.396Z,13.85
2023-05-05T05:24:48.212Z,13.76
2023-05-05T05:25:48.167Z,13.90
2023-05-05T05:26:48.194Z,13.96
2023-05-05T05:27:52.294Z,13.49
2023-05-05T05:28:49.316Z,13.52
2023-05-05T05:29:48.213Z,13.59
2023-05-05T05:30:48.221Z,13.70
2023-05-05T05:31:48.290Z,13.47
2023-05-05T05:32:48.249Z,12.32
2023-05-05T05:33:48.193Z,11.61
2023-05-05T05:34:48.424Z,10.67
2023-05-05T05:35:48.170Z,10.31
2023-05-05T05:36:48.170Z,9.83
2023-05-05T05:37:48.182Z,9.30
2023-05-05T05:38:48.141Z,8.70
2023-05-05T05:39:48.387Z,8.82
2023-05-05T05:40:48.166Z,9.11
2023-05-05T05:41:48.501Z,9.09
2023-05-05T05:42:48.434Z,8.99
2023-05-05T05:43:48.803Z,9.16
2023-05-05T05:44:48.336Z,9.22
2023-05-05T05:45:48.369Z,8.75
2023-05-05T05:46:48.406Z,8.96
2023-05-05T05:47:48.551Z,9.83
2023-05-05T05:48:48.520Z,10.41
2023-05-05T05:49:48.525Z,10.74
2023-05-05T05:50:48.747Z,10.40
2023-05-05T05:51:48.689Z,10.17
2023-05-05T05:52:48.690Z,10.43
2023-05-05T05:53:48.795Z,10.99
2023-05-05T05:54:48.764Z,10.58
2023-05-05T05:55:48.795Z,10.25
2023-05-05T05:56:48.877Z,10.50
2023-05-05T05:57:49.514Z,15.06
2023-05-05T05:58:48.910Z,18.08
2023-05-05T05:59:48.938Z,14.02
2023-05-05T06:00:48.959Z,13.90
2023-05-05T06:01:49.037Z,13.65
2023-05-05T06:02:49.006Z,12.41
2023-05-05T06:03:49.005Z,12.05
2023-05-05T06:04:48.949Z,11.70
2023-05-05T06:05:49.016Z,11.82
2023-05-05T06:06:48.937Z,12.15
2023-05-05T06:07:49.476Z,11.68
2023-05-05T06:08:49.388Z,11.53
2023-05-05T06:09:48.952Z,11.51
2023-05-05T06:10:48.931Z,11.72
2023-05-05T06:11:48.984Z,12.05
2023-05-05T06:12:48.973Z,12.46
2023-05-05T06:13:48.941Z,12.21
2023-05-05T06:14:49.043Z,13.14
2023-05-05T06:15:49.078Z,12.60
2023-05-05T06:16:48.966Z,12.57
2023-05-05T06:17:49.507Z,12.22
2023-05-05T06:18:49.050Z,12.49
2023-05-05T06:19:49.121Z,12.14
2023-05-05T06:20:49.120Z,11.55
2023-05-05T06:21:49.175Z,11.95
2023-05-05T06:22:49.248Z,11.69
2023-05-05T06:23:49.297Z,12.05
2023-05-05T06:24:49.317Z,11.49
2023-05-05T06:25:49.452Z,11.25
2023-05-05T06:26:49.489Z,11.33
2023-05-05T06:27:49.520Z,10.74
2023-05-05T06:28:49.661Z,10.84
2023-05-05T06:29:49.693Z,10.63
2023-05-05T06:30:49.732Z,10.58
2023-05-05T06:31:49.884Z,10.69
2023-05-05T06:32:50.002Z,11.15
2023-05-05T06:33:49.953Z,10.93
2023-05-05T06:34:49.976Z,10.77
2023-05-05T06:35:50.124Z,11.00
2023-05-05T06:36:52.344Z,10.75
2023-05-05T06:37:50.185Z,11.08
2023-05-05T06:38:50.213Z,9.65
2023-05-05T06:39:50.319Z,9.57
2023-05-05T06:40:50.451Z,9.05
2023-05-05T06:41:50.444Z,8.40
2023-05-05T06:42:50.550Z,9.74
2023-05-05T06:43:50.520Z,9.19
2023-05-05T06:44:50.573Z,9.02
2023-05-05T06:45:50.729Z,8.70
2023-05-05T06:46:50.804Z,8.86
2023-05-05T06:47:50.789Z,10.21
2023-05-05T06:48:50.828Z,9.22
2023-05-05T06:49:50.817Z,9.27
2023-05-05T06:50:50.905Z,9.28
2023-05-05T06:51:50.999Z,9.78
2023-05-05T06:52:51.005Z,9.30
2023-05-05T06:53:51.113Z,9.23
2023-05-05T06:54:51.134Z,9.55
2023-05-05T06:55:51.162Z,9.20
2023-05-05T06:56:51.263Z,9.12
2023-05-05T06:57:51.270Z,9.05
2023-05-05T06:58:51.357Z,8.58
2023-05-05T06:59:51.550Z,8.70
2023-05-05T07:00:51.380Z,8.74
2023-05-05T07:01:51.482Z,8.53
2023-05-05T07:02:51.496Z,8.21
2023-05-05T07:03:51.515Z,8.04
2023-05-05T07:04:51.530Z,8.01
2023-05-05T07:05:51.756Z,8.25
2023-05-05T07:06:51.618Z,7.89
2023-05-05T07:07:53.746Z,7.99
2023-05-05T07:08:51.657Z,8.25
2023-05-05T07:09:51.684Z,8.37
2023-05-05T07:10:51.875Z,8.46
2023-05-05T07:11:52.251Z,8.44
2023-05-05T07:12:51.834Z,8.69
2023-05-05T07:13:51.780Z,8.91
2023-05-05T07:14:51.911Z,8.43
2023-05-05T07:15:52.535Z,8.79
2023-05-05T07:16:52.035Z,8.72
2023-05-05T07:17:51.976Z,8.98
2023-05-05T07:18:51.921Z,8.83
2023-05-05T07:19:52.071Z,9.05
2023-05-05T07:20:51.941Z,9.11
2023-05-05T07:21:52.057Z,8.87
2023-05-05T07:22:52.028Z,8.85
2023-05-05T07:23:52.921Z,8.74
2023-05-05T07:24:52.037Z,8.45
2023-05-05T07:25:52.064Z,8.97
2023-05-05T07:26:52.060Z,8.67
2023-05-05T07:27:52.045Z,8.58
2023-05-05T07:28:52.106Z,9.26
2023-05-05T07:29:52.084Z,9.43
2023-05-05T07:30:52.100Z,9.63
2023-05-05T07:31:52.265Z,9.37
2023-05-05T07:32:52.170Z,9.54
2023-05-05T07:33:52.198Z,9.64
2023-05-05T07:34:52.129Z,9.65
2023-05-05T07:35:54.486Z,6.88
2023-05-05T07:36:52.265Z,5.62
2023-05-05T07:37:52.244Z,4.82
2023-05-05T07:38:52.390Z,4.76
2023-05-05T07:39:52.441Z,5.04
2023-05-05T07:40:52.465Z,5.18
2023-05-05T07:41:52.500Z,5.27
2023-05-05T07:42:52.608Z,5.47
2023-05-05T07:43:52.615Z,5.76
2023-05-05T07:44:52.716Z,5.98
2023-05-05T07:45:52.800Z,6.19
2023-05-05T07:46:52.723Z,6.46
2023-05-05T07:47:52.903Z,6.68
2023-05-05T07:48:52.740Z,6.98
2023-05-05T07:49:52.733Z,7.13
2023-05-05T07:50:53.033Z,7.38
2023-05-05T07:51:52.768Z,7.05
2023-05-05T07:52:59.278Z,6.81
2023-05-05T07:53:53.782Z,6.82
2023-05-05T07:54:52.780Z,6.80
2023-05-05T07:55:52.789Z,6.71
2023-05-05T07:56:52.764Z,6.76
2023-05-05T07:57:52.768Z,6.80
2023-05-05T07:58:52.815Z,7.02
2023-05-05T07:59:52.787Z,7.05
2023-05-05T08:00:52.731Z,7.26
2023-05-05T08:01:54.823Z,7.19
2023-05-05T08:02:52.799Z,6.98
2023-05-05T08:03:52.983Z,7.13
2023-05-05T08:04:52.703Z,7.12
2023-05-05T08:05:52.761Z,6.80
2023-05-05T08:06:52.723Z,7.10
2023-05-05T08:07:52.769Z,7.02
2023-05-05T08:08:52.738Z,7.02
2023-05-05T08:09:52.779Z,6.49
2023-05-05T08:10:53.530Z,6.67
2023-05-05T08:11:52.783Z,6.95
2023-05-05T08:12:52.845Z,6.88
2023-05-05T08:13:52.802Z,7.09
2023-05-05T08:14:52.810Z,7.41
2023-05-05T08:15:52.899Z,7.30
2023-05-05T08:16:52.898Z,7.26
2023-05-05T08:17:52.935Z,7.43
2023-05-05T08:18:53.012Z,7.36
2023-05-05T08:19:53.019Z,7.60
2023-05-05T08:20:53.034Z,7.45
2023-05-05T08:21:53.079Z,7.70
2023-05-05T08:22:53.143Z,7.64
2023-05-05T08:23:53.260Z,7.88
2023-05-05T08:24:53.293Z,7.91
2023-05-05T08:25:53.416Z,6.18
2023-05-05T08:26:53.370Z,5.39
2023-05-05T08:27:53.403Z,3.09
2023-05-05T08:28:53.452Z,2.68
2023-05-05T08:29:53.447Z,2.08
2023-05-05T08:30:53.438Z,1.70
2023-05-05T08:31:53.462Z,1.62
2023-05-05T08:32:53.529Z,1.39
2023-05-05T08:33:53.486Z,1.23
2023-05-05T08:34:53.472Z,1.17
2023-05-05T08:35:53.585Z,1.05
2023-05-05T08:36:53.594Z,0.81
2023-05-05T08:37:53.561Z,0.74
2023-05-05T08:38:53.613Z,0.69
2023-05-05T08:39:53.602Z,0.68
2023-05-05T08:40:53.670Z,0.77
2023-05-05T08:41:53.681Z,0.68
2023-05-05T08:42:53.631Z,0.70
2023-05-05T08:43:53.665Z,0.73
2023-05-05T08:44:53.757Z,0.52
2023-05-05T08:45:53.807Z,0.66
2023-05-05T08:46:53.850Z,0.61
2023-05-05T08:47:53.963Z,0.57
2023-05-05T08:48:54.060Z,0.53
2023-05-05T08:49:54.000Z,0.52
2023-05-05T08:50:54.039Z,0.46
2023-05-05T08:51:54.220Z,0.56
2023-05-05T08:52:54.174Z,0.62
2023-05-05T08:53:54.177Z,0.62
2023-05-05T08:54:54.219Z,0.62
2023-05-05T08:55:54.279Z,0.55
2023-05-05T08:56:54.325Z,0.53
2023-05-05T08:57:54.418Z,0.50
2023-05-05T08:58:54.462Z,0.53
2023-05-05T08:59:54.564Z,0.55
2023-05-05T09:00:54.590Z,0.63
2023-05-05T09:01:54.678Z,0.50
2023-05-05T09:02:54.836Z,0.55
2023-05-05T09:03:54.763Z,0.50
2023-05-05T09:04:54.808Z,0.60
2023-05-05T09:05:54.871Z,0.61
2023-05-05T09:06:55.035Z,0.60
2023-05-05T09:07:55.013Z,0.59
2023-05-05T09:08:55.625Z,0.59
2023-05-05T09:09:54.996Z,0.56
2023-05-05T09:10:55.043Z,0.53
2023-05-05T09:11:55.058Z,0.55
2023-05-05T09:12:55.175Z,0.58
2023-05-05T09:13:55.167Z,0.59
2023-05-05T09:14:55.839Z,0.60
2023-05-05T09:15:55.237Z,0.57
2023-05-05T09:16:55.275Z,0.56
2023-05-05T09:17:55.321Z,0.55
2023-05-05T09:18:55.304Z,0.60
2023-05-05T09:19:55.411Z,0.58
2023-05-05T09:20:56.361Z,0.50
2023-05-05T09:21:55.415Z,0.51
2023-05-05T09:22:55.488Z,0.51
2023-05-05T09:23:57.066Z,0.55
2023-05-05T09:24:55.571Z,0.59
2023-05-05T09:25:55.549Z,0.60
2023-05-05T09:26:56.866Z,0.57
2023-05-05T09:27:55.527Z,0.47
2023-05-05T09:28:55.456Z,0.48
2023-05-05T09:29:55.476Z,0.51
2023-05-05T09:30:55.530Z,0.51
2023-05-05T09:31:55.550Z,0.56
2023-05-05T09:32:55.644Z,0.64
2023-05-05T09:33:55.738Z,0.75
2023-05-05T09:34:55.687Z,0.67
2023-05-05T09:35:55.686Z,0.71
2023-05-05T09:36:55.671Z,0.79
2023-05-05T09:37:55.860Z,0.83
2023-05-05T09:38:56.747Z,0.99
2023-05-05T09:39:55.765Z,0.97
2023-05-05T09:40:55.769Z,1.13
2023-05-05T09:41:55.842Z,1.28
2023-05-05T09:42:55.883Z,1.40
2023-05-05T09:43:55.944Z,1.48
2023-05-05T09:44:57.852Z,1.59
2023-05-05T09:45:56.060Z,1.66
2023-05-05T09:46:56.634Z,1.88
2023-05-05T09:47:59.710Z,1.96
2023-05-05T09:48:55.936Z,1.96
2023-05-05T09:49:55.992Z,2.00
2023-05-05T09:50:55.974Z,2.16
2023-05-05T09:51:56.165Z,2.43
2023-05-05T09:52:55.943Z,3.09
2023-05-05T09:53:55.957Z,3.27
2023-05-05T09:54:55.972Z,3.65
2023-05-05T09:55:55.964Z,4.11
2023-05-05T09:56:55.969Z,4.17
2023-05-05T09:57:56.010Z,4.21
2023-05-05T09:58:57.621Z,4.33
2023-05-05T09:59:55.906Z,2.92
2023-05-05T10:00:56.063Z,2.31
2023-05-05T10:01:55.903Z,3.05
2023-05-05T10:02:55.883Z,3.41
2023-05-05T10:03:55.925Z,4.28
2023-05-05T10:04:55.841Z,5.11
2023-05-05T10:05:55.910Z,5.49
2023-05-05T10:06:55.855Z,5.25
2023-05-05T10:07:55.849Z,5.15
2023-05-05T10:08:55.814Z,5.12
2023-05-05T10:09:55.800Z,5.65
2023-05-05T10:10:55.827Z,3.57
2023-05-05T10:11:55.853Z,3.25
2023-05-05T10:12:55.934Z,3.69
2023-05-05T10:13:55.741Z,4.14
2023-05-05T10:14:55.754Z,3.88
2023-05-05T10:15:55.821Z,2.35
2023-05-05T10:16:55.765Z,3.18
2023-05-05T10:18:05.839Z,3.60
2023-05-05T10:18:57.928Z,3.62
2023-05-05T10:19:55.711Z,3.73
2023-05-05T10:20:56.119Z,4.10
2023-05-05T10:21:55.737Z,5.41
2023-05-05T10:22:55.746Z,6.43
2023-05-05T10:23:55.752Z,6.13
2023-05-05T10:24:55.700Z,4.34
2023-05-05T10:25:55.719Z,5.20
2023-05-05T10:26:55.723Z,3.50
2023-05-05T10:27:55.714Z,3.97
2023-05-05T10:28:55.668Z,4.15
2023-05-05T10:29:55.685Z,2.44
2023-05-05T10:30:55.684Z,1.43
2023-05-05T10:31:55.683Z,2.09
2023-05-05T10:33:07.906Z,2.25
2023-05-05T10:33:56.775Z,2.27
2023-05-05T10:34:55.616Z,2.34
2023-05-05T10:35:55.694Z,2.73
2023-05-05T10:36:55.692Z,3.29
2023-05-05T10:37:55.654Z,4.38
2023-05-05T10:38:55.621Z,5.01
2023-05-05T10:39:55.621Z,2.91
2023-05-05T10:40:55.548Z,3.08
2023-05-05T10:41:55.579Z,3.64
2023-05-05T10:42:55.573Z,3.20
2023-05-05T10:43:55.637Z,2.38
2023-05-05T10:44:55.580Z,2.88
2023-05-05T10:45:55.628Z,3.57
2023-05-05T10:46:55.568Z,3.23
2023-05-05T10:47:55.535Z,3.51
2023-05-05T10:48:55.545Z,2.92
2023-05-05T10:49:55.520Z,1.92
2023-05-05T10:50:57.513Z,1.84
2023-05-05T10:51:55.647Z,2.48
2023-05-05T10:52:55.614Z,2.94
2023-05-05T10:53:56.582Z,2.97
2023-05-05T10:54:55.549Z,3.12
2023-05-05T10:55:55.575Z,3.11
2023-05-05T10:56:55.602Z,3.66
2023-05-05T10:57:55.568Z,3.46
2023-05-05T10:59:00.307Z,3.74
2023-05-05T10:59:56.930Z,3.08
2023-05-05T11:00:55.551Z,1.87
2023-05-05T11:01:55.565Z,2.22
2023-05-05T11:02:55.749Z,2.77
2023-05-05T11:03:55.734Z,1.56
2023-05-05T11:04:55.549Z,1.38
2023-05-05T11:05:55.479Z,1.57
2023-05-05T11:06:55.538Z,2.14
2023-05-05T11:07:55.476Z,2.65
2023-05-05T11:08:55.560Z,2.42
2023-05-05T11:09:55.551Z,1.60
2023-05-05T11:10:55.597Z,2.09
2023-05-05T11:11:55.705Z,1.82
2023-05-05T11:12:55.837Z,1.88
2023-05-05T11:13:55.792Z,2.48
2023-05-05T11:14:55.867Z,3.21
2023-05-05T11:15:56.576Z,3.43
2023-05-05T11:16:56.008Z,1.95
2023-05-05T11:17:56.065Z,1.82
2023-05-05T11:18:57.006Z,1.84
2023-05-05T11:19:56.029Z,0.95
2023-05-05T11:20:56.079Z,1.12
2023-05-05T11:21:55.989Z,1.09
2023-05-05T11:22:55.935Z,0.80
2023-05-05T11:23:55.917Z,0.99
2023-05-05T11:24:55.973Z,0.60
2023-05-05T11:25:55.941Z,0.41
2023-05-05T11:26:55.949Z,0.52
2023-05-05T11:27:55.980Z,0.73
2023-05-05T11:28:56.038Z,0.93
2023-05-05T11:29:56.096Z,1.10
2023-05-05T11:30:56.953Z,1.36
2023-05-05T11:31:56.272Z,1.57
2023-05-05T11:32:56.278Z,1.90
2023-05-05T11:33:56.519Z,1.98
2023-05-05T11:34:56.335Z,2.11
2023-05-05T11:35:56.434Z,2.32
2023-05-05T11:36:56.507Z,2.48
2023-05-05T11:37:56.495Z,2.76
2023-05-05T11:38:56.580Z,3.19
2023-05-05T11:39:56.665Z,3.85
2023-05-05T11:40:56.676Z,4.51
2023-05-05T11:41:56.753Z,4.87
2023-05-05T11:42:56.803Z,5.30
2023-05-05T11:43:56.840Z,5.64
2023-05-05T11:44:56.946Z,5.73
2023-05-05T11:45:57.025Z,5.98
2023-05-05T11:46:57.029Z,6.12
2023-05-05T11:47:57.230Z,7.22
2023-05-05T11:48:57.213Z,7.61
2023-05-05T11:49:57.317Z,7.61
2023-05-05T11:50:57.328Z,7.59
2023-05-05T11:51:57.336Z,7.17
2023-05-05T11:52:57.428Z,6.92
2023-05-05T11:53:59.020Z,7.09
2023-05-05T11:54:57.552Z,7.06
2023-05-05T11:55:57.607Z,7.20
2023-05-05T11:56:57.681Z,7.51
2023-05-05T11:57:57.721Z,7.59
2023-05-05T11:58:57.812Z,7.87
2023-05-05T11:59:57.849Z,9.07
2023-05-05T12:00:57.893Z,9.45
2023-05-05T12:01:57.944Z,10.01
2023-05-05T12:02:58.194Z,10.16
2023-05-05T12:03:58.269Z,10.06
2023-05-05T12:04:58.173Z,10.22
2023-05-05T12:05:58.156Z,10.54
2023-05-05T12:06:58.184Z,10.77
2023-05-05T12:07:58.238Z,10.70
2023-05-05T12:08:58.302Z,10.77
2023-05-05T12:09:58.376Z,10.94
2023-05-05T12:10:58.424Z,11.62
2023-05-05T12:11:58.476Z,12.03
2023-05-05T12:12:58.578Z,11.69
2023-05-05T12:13:58.535Z,12.21
2023-05-05T12:14:58.594Z,12.39
2023-05-05T12:15:58.695Z,12.28
2023-05-05T12:16:58.751Z,12.59
2023-05-05T12:18:00.110Z,12.43
2023-05-05T12:18:58.792Z,12.43
2023-05-05T12:19:58.805Z,12.56
2023-05-05T12:20:58.744Z,12.57
2023-05-05T12:21:58.759Z,12.45
2023-05-05T12:22:58.761Z,12.38
2023-05-05T12:23:58.723Z,12.61
2023-05-05T12:24:58.726Z,12.74
2023-05-05T12:25:58.733Z,12.91
2023-05-05T12:26:58.728Z,12.89
2023-05-05T12:27:58.679Z,12.93
2023-05-05T12:28:58.732Z,12.92
2023-05-05T12:29:58.671Z,12.35
2023-05-05T12:30:58.722Z,12.44
2023-05-05T12:31:58.738Z,12.35
2023-05-05T12:32:59.289Z,12.89
2023-05-05T12:33:58.722Z,13.12
2023-05-05T12:34:58.651Z,12.54
2023-05-05T12:35:58.886Z,12.59
2023-05-05T12:36:58.649Z,12.82
2023-05-05T12:37:59.065Z,13.19
2023-05-05T12:38:58.608Z,12.87
2023-05-05T12:39:58.617Z,12.80
2023-05-05T12:40:58.592Z,12.89
2023-05-05T12:41:58.618Z,12.88
2023-05-05T12:42:58.606Z,13.23
2023-05-05T12:43:58.597Z,12.88
2023-05-05T12:44:58.595Z,12.49
2023-05-05T12:45:58.590Z,12.76
2023-05-05T12:46:58.572Z,13.45
2023-05-05T12:47:58.619Z,12.66
2023-05-05T12:48:58.549Z,12.07
2023-05-05T12:49:58.601Z,12.17
2023-05-05T12:50:58.543Z,12.13
2023-05-05T12:51:58.602Z,11.34
2023-05-05T12:52:58.506Z,11.27
2023-05-05T12:53:58.512Z,11.56
2023-05-05T12:54:58.537Z,11.60
2023-05-05T12:55:58.506Z,10.91
2023-05-05T12:56:58.576Z,11.13
2023-05-05T12:57:58.518Z,11.65
2023-05-05T12:58:58.503Z,11.27
2023-05-05T12:59:58.502Z,11.21
2023-05-05T13:00:58.560Z,10.93
2023-05-05T13:01:58.609Z,11.03
2023-05-05T13:02:58.606Z,11.49
2023-05-05T13:03:58.559Z,11.22